Time,TemperatureF,DewpointF,PressureIn,WindDirection,WindDirectionDegrees,WindSpeedMPH,WindSpeedGustMPH,Humidity,HourlyPrecipIn,Conditions,Clouds,dailyrainin,SoftwareType,DateUTC
2013-01-11 00:02:00,62.0,60.0,29.92,West,267,10.0,20.0,94,0.12,,,0.73,,2013-01-11 06:02:00,
2013-01-11 00:12:00,62.0,60.0,29.92,West,267,10.0,20.0,94,0.12,,,0.73,,2013-01-11 06:12:00,
2013-01-11 00:22:00,60.0,58.0,29.91,South,178,9.0,16.0,92,0.14,,,0.75,,2013-01-11 06:22:00,
2013-01-11 00:32:00,60.0,57.0,29.92,West,261,2.0,10.0,91,0.11,,,0.70,,2013-01-11 06:32:00,
2013-01-11 00:42:00,60.0,57.0,29.92,West,261,2.0,10.0,91,0.11,,,0.70,,2013-01-11 06:42:00,
2013-01-11 00:52:00,60.0,57.0,29.91,SW,229,2.0,9.0,91,0.11,,,0.70,,2013-01-11 06:52:00,
2013-01-11 01:02:00,60.0,57.0,29.91,SSW,207,3.0,12.0,91,0.02,,,0.70,,2013-01-11 07:02:00,
2013-01-11 01:12:00,60.0,57.0,29.91,SSW,207,3.0,12.0,91,0.02,,,0.70,,2013-01-11 07:12:00,
2013-01-11 01:22:00,61.0,58.0,29.92,SW,219,3.0,12.0,90,0.00,,,0.70,,2013-01-11 07:22:00,
2013-01-11 01:32:00,61.0,58.0,29.93,WSW,251,4.0,10.0,89,0.00,,,0.70,,2013-01-11 07:32:00,
2013-01-11 01:42:00,61.0,58.0,29.93,West,270,6.0,10.0,89,0.00,,,0.70,,2013-01-11 07:42:00,
2013-01-11 01:52:00,61.0,58.0,29.93,West,270,6.0,10.0,89,0.00,,,0.70,,2013-01-11 07:52:00,
2013-01-11 02:02:00,61.0,57.0,29.93,West,267,1.0,10.0,88,0.00,,,0.70,,2013-01-11 08:02:00,
2013-01-11 02:12:00,61.0,57.0,29.94,WSW,246,2.0,11.0,87,0.00,,,0.70,,2013-01-11 08:12:00,
2013-01-11 02:22:00,61.0,57.0,29.94,WSW,246,2.0,11.0,87,0.00,,,0.70,,2013-01-11 08:22:00,
2013-01-11 02:32:00,61.0,57.0,29.94,WSW,254,6.0,9.0,87,0.00,,,0.70,,2013-01-11 08:32:00,
2013-01-11 02:42:00,61.0,57.0,29.94,WSW,254,6.0,9.0,87,0.00,,,0.70,,2013-01-11 08:42:00,
2013-01-11 02:52:00,60.0,56.0,29.94,SW,229,7.0,14.0,87,0.00,,,0.70,,2013-01-11 08:52:00,
2013-01-11 03:02:00,60.0,56.0,29.95,SW,225,2.0,11.0,87,0.00,,,0.70,,2013-01-11 09:02:00,
2013-01-11 03:12:00,60.0,56.0,29.95,SW,225,2.0,11.0,87,0.00,,,0.70,,2013-01-11 09:12:00,
2013-01-11 03:22:00,60.0,56.0,29.95,West,259,3.0,13.0,88,0.00,,,0.70,,2013-01-11 09:22:00,
2013-01-11 03:32:00,60.0,56.0,29.96,WSW,241,5.0,10.0,88,0.00,,,0.65,,2013-01-11 09:32:00,
2013-01-11 03:42:00,60.0,56.0,29.96,WSW,241,5.0,10.0,88,0.00,,,0.65,,2013-01-11 09:42:00,
2013-01-11 03:52:00,60.0,56.0,29.96,West,271,3.0,9.0,88,0.00,,,0.65,,2013-01-11 09:52:00,
2013-01-11 04:02:00,60.0,56.0,29.96,SSW,208,5.0,10.0,88,0.00,,,0.65,,2013-01-11 10:02:00,
2013-01-11 04:12:00,60.0,56.0,29.96,SSW,208,5.0,10.0,88,0.00,,,0.65,,2013-01-11 10:12:00,
2013-01-11 04:22:00,60.0,56.0,29.96,WSW,244,4.0,9.0,88,0.00,,,0.65,,2013-01-11 10:22:00,
2013-01-11 04:32:00,59.0,55.0,29.96,West,273,0.0,7.0,88,0.00,,,0.63,,2013-01-11 10:32:00,
2013-01-11 04:42:00,59.0,55.0,29.96,West,273,0.0,7.0,88,0.00,,,0.63,,2013-01-11 10:42:00,
2013-01-11 04:52:00,59.0,55.0,29.96,SW,231,2.0,9.0,88,0.00,,,0.63,,2013-01-11 10:52:00,
2013-01-11 05:02:00,59.0,55.0,29.95,SW,235,1.0,6.0,88,0.00,,,0.63,,2013-01-11 11:02:00,
2013-01-11 05:12:00,59.0,55.0,29.95,SW,235,1.0,6.0,88,0.00,,,0.63,,2013-01-11 11:12:00,
2013-01-11 05:22:00,59.0,55.0,29.96,SW,217,2.0,9.0,88,0.00,,,0.63,,2013-01-11 11:22:00,
2013-01-11 05:32:00,58.0,55.0,29.96,SW,215,1.0,8.0,89,0.00,,,0.54,,2013-01-11 11:32:00,
2013-01-11 05:42:00,58.0,55.0,29.96,SW,215,1.0,8.0,89,0.00,,,0.54,,2013-01-11 11:42:00,
2013-01-11 05:53:00,58.0,55.0,29.96,WSW,237,1.0,7.0,90,0.00,,,0.54,,2013-01-11 11:53:00,
2013-01-11 06:03:00,57.0,54.0,29.97,WSW,239,1.0,8.0,90,0.00,,,0.54,,2013-01-11 12:03:00,
2013-01-11 06:12:00,57.0,54.0,29.97,WSW,239,1.0,8.0,90,0.00,,,0.54,,2013-01-11 12:12:00,
2013-01-11 06:22:00,57.0,54.0,29.97,SSW,194,2.0,7.0,91,0.00,,,0.54,,2013-01-11 12:22:00,
2013-01-11 06:32:00,57.0,54.0,29.98,SW,219,4.0,7.0,91,0.00,,,0.50,,2013-01-11 12:32:00,
2013-01-11 06:42:00,57.0,54.0,29.98,SW,219,4.0,7.0,91,0.00,,,0.50,,2013-01-11 12:42:00,
2013-01-11 06:53:00,56.0,54.0,29.98,SSW,213,1.0,7.0,92,0.00,,,0.50,,2013-01-11 12:53:00,
2013-01-11 07:02:00,56.0,54.0,29.98,SW,228,2.0,5.0,92,0.00,,,0.50,,2013-01-11 13:02:00,
2013-01-11 07:13:00,56.0,54.0,29.98,SW,228,2.0,5.0,92,0.00,,,0.50,,2013-01-11 13:13:00,
2013-01-11 07:22:00,56.0,54.0,29.98,SW,223,1.0,4.0,92,0.00,,,0.50,,2013-01-11 13:22:00,
2013-01-11 07:33:00,55.0,53.0,29.98,SSW,194,1.0,5.0,92,0.00,,,0.49,,2013-01-11 13:33:00,
2013-01-11 07:42:00,55.0,53.0,29.98,SSW,194,1.0,5.0,92,0.00,,,0.49,,2013-01-11 13:42:00,
2013-01-11 07:53:00,55.0,53.0,29.99,SW,219,1.0,7.0,93,0.00,,,0.49,,2013-01-11 13:53:00,
2013-01-11 08:03:00,55.0,53.0,29.99,SW,214,0.0,4.0,93,0.00,,,0.49,,2013-01-11 14:03:00,
2013-01-11 08:12:00,55.0,53.0,29.99,SW,214,0.0,4.0,93,0.00,,,0.49,,2013-01-11 14:12:00,
2013-01-11 08:23:00,56.0,54.0,29.99,South,184,1.0,6.0,93,0.00,,,0.49,,2013-01-11 14:23:00,
2013-01-11 08:33:00,56.0,54.0,30.00,WSW,257,4.0,9.0,92,0.00,,,0.40,,2013-01-11 14:33:00,
2013-01-11 08:42:00,57.0,54.0,30.01,SSW,201,5.0,11.0,89,0.00,,,0.40,,2013-01-11 14:42:00,
2013-01-11 08:53:00,57.0,54.0,30.01,SSW,201,5.0,11.0,89,0.00,,,0.40,,2013-01-11 14:53:00,
2013-01-11 09:03:00,58.0,54.0,30.01,WNW,296,2.0,9.0,86,0.00,,,0.40,,2013-01-11 15:03:00,
2013-01-11 09:12:00,58.0,53.0,30.01,SSW,213,7.0,10.0,83,0.00,,,0.40,,2013-01-11 15:12:00,
2013-01-11 09:23:00,58.0,53.0,30.01,SSW,213,7.0,10.0,83,0.00,,,0.40,,2013-01-11 15:23:00,
2013-01-11 09:32:00,59.0,53.0,30.02,West,265,9.0,13.0,80,0.00,,,0.38,,2013-01-11 15:32:00,
2013-01-11 09:43:00,59.0,53.0,30.02,West,265,9.0,13.0,80,0.00,,,0.38,,2013-01-11 15:43:00,
2013-01-11 09:53:00,59.0,52.0,30.02,SSW,203,8.0,14.0,77,0.00,,,0.38,,2013-01-11 15:53:00,
2013-01-11 10:03:00,60.0,52.0,30.02,SSW,206,7.0,13.0,75,0.00,,,0.38,,2013-01-11 16:03:00,
2013-01-11 10:12:00,60.0,52.0,30.01,SSW,211,6.0,11.0,74,0.00,,,0.38,,2013-01-11 16:12:00,
2013-01-11 10:22:00,60.0,52.0,30.01,SSW,211,6.0,11.0,74,0.00,,,0.38,,2013-01-11 16:22:00,
2013-01-11 10:33:00,61.0,53.0,30.01,WSW,246,1.0,11.0,74,0.00,,,0.34,,2013-01-11 16:33:00,
2013-01-11 10:42:00,61.0,53.0,30.01,WSW,246,1.0,11.0,74,0.00,,,0.34,,2013-01-11 16:42:00,
2013-01-11 10:53:00,62.0,52.0,30.01,WSW,250,10.0,15.0,69,0.00,,,0.34,,2013-01-11 16:53:00,
2013-01-11 11:03:00,62.0,51.0,30.00,SW,219,4.0,15.0,68,0.00,,,0.34,,2013-01-11 17:03:00,
2013-01-11 11:12:00,63.0,52.0,30.00,SSW,213,4.0,12.0,67,0.00,,,0.34,,2013-01-11 17:12:00,
2013-01-11 11:22:00,63.0,52.0,30.00,SSW,213,4.0,12.0,67,0.00,,,0.34,,2013-01-11 17:22:00,
2013-01-11 11:33:00,63.0,51.0,29.99,WNW,294,9.0,18.0,65,0.00,,,0.33,,2013-01-11 17:33:00,
2013-01-11 11:43:00,63.0,51.0,29.99,WNW,294,9.0,18.0,65,0.00,,,0.33,,2013-01-11 17:43:00,
2013-01-11 11:53:00,64.0,51.0,29.99,WSW,247,3.0,17.0,63,0.00,,,0.33,,2013-01-11 17:53:00,
2013-01-11 12:03:00,64.0,51.0,29.99,SSW,201,1.0,14.0,63,0.00,,,0.33,,2013-01-11 18:03:00,
2013-01-11 12:12:00,64.0,51.0,29.99,SSW,201,1.0,14.0,63,0.00,,,0.33,,2013-01-11 18:12:00,
2013-01-11 12:23:00,65.0,51.0,29.98,West,267,6.0,15.0,61,0.00,,,0.33,,2013-01-11 18:23:00,
2013-01-11 12:33:00,65.0,51.0,29.98,SSE,159,8.0,16.0,60,0.00,,,0.21,,2013-01-11 18:33:00,
2013-01-11 12:43:00,65.0,51.0,29.98,SSE,159,8.0,16.0,60,0.00,,,0.21,,2013-01-11 18:43:00,
2013-01-11 12:53:00,65.0,50.0,29.97,SSW,209,4.0,12.0,58,0.00,,,0.21,,2013-01-11 18:53:00,
2013-01-11 13:02:00,66.0,49.0,29.96,SSW,196,8.0,16.0,55,0.00,,,0.21,,2013-01-11 19:02:00,
2013-01-11 13:12:00,66.0,49.0,29.96,SSW,196,8.0,16.0,55,0.00,,,0.21,,2013-01-11 19:12:00,
2013-01-11 13:22:00,67.0,50.0,29.96,South,180,5.0,11.0,55,0.00,,,0.21,,2013-01-11 19:22:00,
2013-01-11 13:32:00,66.0,49.0,29.96,WSW,249,4.0,15.0,55,0.00,,,0.18,,2013-01-11 19:32:00,
2013-01-11 13:43:00,66.0,49.0,29.96,WSW,249,4.0,15.0,55,0.00,,,0.18,,2013-01-11 19:43:00,
2013-01-11 13:53:00,67.0,50.0,29.95,SW,229,5.0,14.0,55,0.00,,,0.18,,2013-01-11 19:53:00,
2013-01-11 14:03:00,67.0,50.0,29.95,WSW,247,4.0,16.0,55,0.00,,,0.18,,2013-01-11 20:03:00,
2013-01-11 14:12:00,67.0,50.0,29.95,WSW,247,4.0,16.0,55,0.00,,,0.18,,2013-01-11 20:12:00,
2013-01-11 14:22:00,67.0,49.0,29.95,SSE,167,11.0,18.0,53,0.00,,,0.18,,2013-01-11 20:22:00,
2013-01-11 14:33:00,67.0,50.0,29.95,SSW,210,5.0,13.0,54,0.00,,,0.17,,2013-01-11 20:33:00,
2013-01-11 14:43:00,67.0,50.0,29.95,SSW,210,5.0,13.0,54,0.00,,,0.17,,2013-01-11 20:43:00,
2013-01-11 14:53:00,68.0,51.0,29.94,WSW,243,4.0,12.0,54,0.00,,,0.17,,2013-01-11 20:53:00,
2013-01-11 15:03:00,68.0,50.0,29.94,South,178,2.0,10.0,53,0.00,,,0.17,,2013-01-11 21:03:00,
2013-01-11 15:12:00,68.0,50.0,29.94,South,178,2.0,10.0,53,0.00,,,0.17,,2013-01-11 21:12:00,
2013-01-11 15:23:00,68.0,50.0,29.94,SW,216,5.0,11.0,53,0.00,,,0.17,,2013-01-11 21:23:00,
2013-01-11 15:33:00,67.0,50.0,29.94,SSW,195,2.0,10.0,55,0.00,,,0.16,,2013-01-11 21:33:00,
2013-01-11 15:42:00,67.0,50.0,29.94,SSW,195,2.0,10.0,55,0.00,,,0.16,,2013-01-11 21:42:00,
2013-01-11 15:53:00,67.0,50.0,29.93,SSW,196,4.0,11.0,55,0.00,,,0.16,,2013-01-11 21:53:00,
2013-01-11 16:02:00,67.0,50.0,29.93,SSE,163,0.0,13.0,55,0.00,,,0.16,,2013-01-11 22:02:00,
2013-01-11 16:12:00,67.0,50.0,29.93,SSE,163,0.0,13.0,55,0.00,,,0.16,,2013-01-11 22:12:00,
2013-01-11 16:22:00,67.0,50.0,29.92,SSW,204,3.0,9.0,55,0.00,,,0.16,,2013-01-11 22:22:00,
2013-01-11 16:33:00,67.0,50.0,29.91,SSW,212,2.0,7.0,55,0.00,,,0.16,,2013-01-11 22:33:00,
2013-01-11 16:42:00,67.0,50.0,29.91,SSW,212,2.0,7.0,55,0.00,,,0.16,,2013-01-11 22:42:00,
2013-01-11 16:53:00,67.0,50.0,29.92,SW,218,2.0,12.0,55,0.00,,,0.16,,2013-01-11 22:53:00,
2013-01-11 17:02:00,67.0,51.0,29.92,SSW,198,0.0,8.0,56,0.00,,,0.16,,2013-01-11 23:02:00,
2013-01-11 17:13:00,67.0,51.0,29.92,SSW,198,0.0,8.0,56,0.00,,,0.16,,2013-01-11 23:13:00,
2013-01-11 17:22:00,66.0,51.0,29.92,SSW,209,0.0,5.0,58,0.00,,,0.16,,2013-01-11 23:22:00,
2013-01-11 17:32:00,66.0,52.0,29.92,SSW,200,0.0,1.0,60,0.00,,,0.16,,2013-01-11 23:32:00,
2013-01-11 17:43:00,66.0,52.0,29.92,SSW,200,0.0,1.0,60,0.00,,,0.16,,2013-01-11 23:43:00,
2013-01-11 17:53:00,65.0,52.0,29.92,SSW,200,0.0,1.0,62,0.00,,,0.16,,2013-01-11 23:53:00,
2013-01-11 18:02:00,63.0,52.0,29.92,SSW,200,0.0,3.0,67,0.00,,,0.16,,2013-01-12 00:02:00,
2013-01-11 18:12:00,62.0,52.0,29.91,South,182,0.0,6.0,69,0.00,,,0.16,,2013-01-12 00:12:00,
2013-01-11 18:23:00,62.0,52.0,29.91,South,182,0.0,6.0,69,0.00,,,0.16,,2013-01-12 00:23:00,
2013-01-11 18:32:00,62.0,52.0,29.91,South,175,1.0,6.0,70,0.00,,,0.16,,2013-01-12 00:32:00,
2013-01-11 18:42:00,62.0,52.0,29.91,South,175,1.0,6.0,70,0.00,,,0.16,,2013-01-12 00:42:00,
2013-01-11 18:53:00,62.0,52.0,29.91,SSW,195,1.0,6.0,71,0.00,,,0.16,,2013-01-12 00:53:00,
2013-01-11 19:02:00,62.0,53.0,29.91,South,173,3.0,8.0,72,0.00,,,0.16,,2013-01-12 01:02:00,
2013-01-11 19:12:00,62.0,53.0,29.91,South,173,3.0,8.0,72,0.00,,,0.16,,2013-01-12 01:12:00,
2013-01-11 19:22:00,62.0,53.0,29.90,South,179,5.0,10.0,73,0.00,,,0.16,,2013-01-12 01:22:00,
2013-01-11 19:32:00,63.0,54.0,29.90,South,175,4.0,10.0,72,0.00,,,0.16,,2013-01-12 01:32:00,
2013-01-11 19:42:00,63.0,54.0,29.90,South,175,4.0,10.0,72,0.00,,,0.16,,2013-01-12 01:42:00,
2013-01-11 19:52:00,63.0,53.0,29.91,SSW,199,2.0,11.0,71,0.00,,,0.16,,2013-01-12 01:52:00,
2013-01-11 20:02:00,63.0,54.0,29.91,SSW,201,4.0,10.0,72,0.00,,,0.16,,2013-01-12 02:02:00,
2013-01-11 20:12:00,63.0,54.0,29.91,SSW,201,4.0,10.0,72,0.00,,,0.16,,2013-01-12 02:12:00,
2013-01-11 20:22:00,63.0,54.0,29.91,South,171,5.0,9.0,73,0.00,,,0.16,,2013-01-12 02:22:00,
2013-01-11 20:32:00,63.0,55.0,29.91,SSW,193,5.0,10.0,74,0.00,,,0.16,,2013-01-12 02:32:00,
2013-01-11 20:42:00,63.0,55.0,29.91,SSW,193,5.0,10.0,74,0.00,,,0.16,,2013-01-12 02:42:00,
2013-01-11 20:53:00,63.0,55.0,29.91,SSW,202,4.0,13.0,76,0.00,,,0.16,,2013-01-12 02:53:00,
2013-01-11 21:02:00,63.0,55.0,29.92,SSW,211,3.0,13.0,76,0.00,,,0.16,,2013-01-12 03:02:00,
2013-01-11 21:12:00,63.0,55.0,29.92,SSW,211,3.0,13.0,76,0.00,,,0.16,,2013-01-12 03:12:00,
2013-01-11 21:22:00,63.0,56.0,29.91,SSW,195,5.0,10.0,77,0.00,,,0.16,,2013-01-12 03:22:00,
2013-01-11 21:32:00,63.0,56.0,29.91,SSW,202,3.0,9.0,78,0.00,,,0.16,,2013-01-12 03:32:00,
2013-01-11 21:43:00,63.0,56.0,29.91,SSW,202,3.0,9.0,78,0.00,,,0.16,,2013-01-12 03:43:00,
2013-01-11 21:53:00,63.0,57.0,29.92,South,189,3.0,12.0,81,0.00,,,0.16,,2013-01-12 03:53:00,
2013-01-11 22:02:00,63.0,58.0,29.91,SSW,213,3.0,10.0,84,0.00,,,0.16,,2013-01-12 04:02:00,
2013-01-11 22:12:00,63.0,58.0,29.91,SSW,213,3.0,10.0,84,0.00,,,0.16,,2013-01-12 04:12:00,
2013-01-11 22:22:00,63.0,59.0,29.91,South,191,2.0,13.0,86,0.00,,,0.16,,2013-01-12 04:22:00,
2013-01-11 22:32:00,63.0,59.0,29.92,South,187,5.0,12.0,88,0.00,,,0.15,,2013-01-12 04:32:00,
2013-01-11 22:42:00,63.0,59.0,29.92,South,187,5.0,12.0,88,0.00,,,0.15,,2013-01-12 04:42:00,
2013-01-11 22:52:00,63.0,59.0,29.91,SSW,197,6.0,15.0,88,0.00,,,0.15,,2013-01-12 04:52:00,
2013-01-11 23:03:00,63.0,60.0,29.91,South,190,5.0,9.0,89,0.00,,,0.15,,2013-01-12 05:03:00,
2013-01-11 23:12:00,63.0,60.0,29.91,South,190,5.0,9.0,89,0.00,,,0.15,,2013-01-12 05:12:00,
2013-01-11 23:22:00,63.0,60.0,29.91,SSW,198,8.0,16.0,90,0.00,,,0.15,,2013-01-12 05:22:00,
2013-01-11 23:32:00,63.0,60.0,29.91,SSW,199,6.0,14.0,91,0.00,,,0.13,,2013-01-12 05:32:00,
2013-01-11 23:42:00,63.0,60.0,29.91,SSW,199,6.0,14.0,91,0.00,,,0.13,,2013-01-12 05:42:00,
2013-01-11 23:52:00,63.0,60.0,29.91,SSW,194,3.0,10.0,91,0.00,,,0.13,,2013-01-12 05:52:00,